sensor_id;sensor_type;location;lat;lon;timestamp;P1;durP1;ratioP1;P2;durP2;ratioP2
20865;SDS011;10593;48.398;10.698;2022-09-12T00:02:24;1.57;;;1.57;;
20865;SDS011;10593;48.398;10.698;2022-09-12T00:04:50;1.67;;;1.57;;
20865;SDS011;10593;48.398;10.698;2022-09-12T00:07:16;3.33;;;1.83;;
20865;SDS011;10593;48.398;10.698;2022-09-12T00:09:42;1.87;;;1.70;;
20865;SDS011;10593;48.398;10.698;2022-09-12T00:12:07;1.80;;;1.70;;
20865;SDS011;10593;48.398;10.698;2022-09-12T00:14:33;3.57;;;1.80;;
20865;SDS011;10593;48.398;10.698;2022-09-12T00:16:59;1.77;;;1.67;;
20865;SDS011;10593;48.398;10.698;2022-09-12T00:19:27;1.70;;;1.60;;
20865;SDS011;10593;48.398;10.698;2022-09-12T00:21:53;2.30;;;2.10;;
20865;SDS011;10593;48.398;10.698;2022-09-12T00:24:19;1.93;;;1.80;;
20865;SDS011;10593;48.398;10.698;2022-09-12T00:26:46;3.83;;;2.20;;
20865;SDS011;10593;48.398;10.698;2022-09-12T00:29:15;2.00;;;1.90;;
20865;SDS011;10593;48.398;10.698;2022-09-12T00:31:43;2.07;;;1.97;;
20865;SDS011;10593;48.398;10.698;2022-09-12T00:34:10;1.90;;;1.80;;
20865;SDS011;10593;48.398;10.698;2022-09-12T00:36:37;2.37;;;1.97;;
20865;SDS011;10593;48.398;10.698;2022-09-12T00:39:04;1.70;;;1.60;;
20865;SDS011;10593;48.398;10.698;2022-09-12T00:41:32;2.50;;;1.97;;
20865;SDS011;10593;48.398;10.698;2022-09-12T00:44:41;3.13;;;2.23;;
20865;SDS011;10593;48.398;10.698;2022-09-12T00:52:23;2.23;;;2.00;;
20865;SDS011;10593;48.398;10.698;2022-09-12T00:55:04;2.20;;;2.00;;
20865;SDS011;10593;48.398;10.698;2022-09-12T00:57:49;4.53;;;2.50;;
20865;SDS011;10593;48.398;10.698;2022-09-12T01:00:22;2.47;;;2.30;;
20865;SDS011;10593;48.398;10.698;2022-09-12T01:02:58;2.63;;;2.43;;
20865;SDS011;10593;48.398;10.698;2022-09-12T01:05:30;2.80;;;2.60;;
20865;SDS011;10593;48.398;10.698;2022-09-12T01:08:04;2.90;;;2.57;;
20865;SDS011;10593;48.398;10.698;2022-09-12T01:10:30;2.90;;;2.57;;
20865;SDS011;10593;48.398;10.698;2022-09-12T01:13:00;2.43;;;2.23;;
20865;SDS011;10593;48.398;10.698;2022-09-12T01:15:29;3.70;;;2.33;;
20865;SDS011;10593;48.398;10.698;2022-09-12T01:24:11;3.87;;;2.30;;
20865;SDS011;10593;48.398;10.698;2022-09-12T01:27:04;3.93;;;2.47;;
20865;SDS011;10593;48.398;10.698;2022-09-12T01:30:02;2.30;;;2.10;;
20865;SDS011;10593;48.398;10.698;2022-09-12T01:32:47;1.97;;;1.87;;
20865;SDS011;10593;48.398;10.698;2022-09-12T01:35:53;3.60;;;2.00;;
20865;SDS011;10593;48.398;10.698;2022-09-12T01:41:23;2.57;;;1.97;;
20865;SDS011;10593;48.398;10.698;2022-09-12T01:44:12;2.20;;;2.00;;
20865;SDS011;10593;48.398;10.698;2022-09-12T01:47:05;2.40;;;2.20;;
20865;SDS011;10593;48.398;10.698;2022-09-12T01:54:56;2.30;;;2.00;;
20865;SDS011;10593;48.398;10.698;2022-09-12T01:57:43;2.23;;;2.13;;
20865;SDS011;10593;48.398;10.698;2022-09-12T02:00:19;2.10;;;2.00;;
20865;SDS011;10593;48.398;10.698;2022-09-12T02:02:46;2.67;;;1.90;;
20865;SDS011;10593;48.398;10.698;2022-09-12T02:06:00;2.57;;;2.20;;
20865;SDS011;10593;48.398;10.698;2022-09-12T02:08:46;1.90;;;1.80;;
20865;SDS011;10593;48.398;10.698;2022-09-12T02:11:25;2.13;;;1.90;;
20865;SDS011;10593;48.398;10.698;2022-09-12T02:13:53;2.87;;;1.90;;
20865;SDS011;10593;48.398;10.698;2022-09-12T02:16:41;2.00;;;1.90;;
20865;SDS011;10593;48.398;10.698;2022-09-12T02:19:14;1.80;;;1.70;;
20865;SDS011;10593;48.398;10.698;2022-09-12T02:21:44;3.57;;;2.00;;
20865;SDS011;10593;48.398;10.698;2022-09-12T02:24:17;1.63;;;1.53;;
20865;SDS011;10593;48.398;10.698;2022-09-12T02:26:47;1.80;;;1.70;;
20865;SDS011;10593;48.398;10.698;2022-09-12T02:29:18;1.60;;;1.60;;
20865;SDS011;10593;48.398;10.698;2022-09-12T02:31:45;2.20;;;2.10;;
20865;SDS011;10593;48.398;10.698;2022-09-12T02:34:26;1.97;;;1.87;;
20865;SDS011;10593;48.398;10.698;2022-09-12T02:40:20;2.60;;;2.40;;
20865;SDS011;10593;48.398;10.698;2022-09-12T02:42:47;2.20;;;2.00;;
20865;SDS011;10593;48.398;10.698;2022-09-12T02:45:13;7.53;;;2.53;;
20865;SDS011;10593;48.398;10.698;2022-09-12T02:47:45;2.57;;;2.40;;
20865;SDS011;10593;48.398;10.698;2022-09-12T02:50:52;2.30;;;2.20;;
20865;SDS011;10593;48.398;10.698;2022-09-12T02:53:19;2.30;;;2.20;;
20865;SDS011;10593;48.398;10.698;2022-09-12T02:55:45;2.43;;;2.33;;
20865;SDS011;10593;48.398;10.698;2022-09-12T02:58:12;3.27;;;1.90;;
20865;SDS011;10593;48.398;10.698;2022-09-12T03:00:50;2.50;;;2.40;;
20865;SDS011;10593;48.398;10.698;2022-09-12T03:03:26;2.70;;;2.47;;
20865;SDS011;10593;48.398;10.698;2022-09-12T03:06:36;2.10;;;2.00;;
20865;SDS011;10593;48.398;10.698;2022-09-12T03:09:19;2.00;;;1.90;;
20865;SDS011;10593;48.398;10.698;2022-09-12T03:12:36;2.17;;;2.07;;
20865;SDS011;10593;48.398;10.698;2022-09-12T03:15:26;2.13;;;2.03;;
20865;SDS011;10593;48.398;10.698;2022-09-12T03:24:23;2.27;;;2.13;;
20865;SDS011;10593;48.398;10.698;2022-09-12T03:27:03;2.70;;;2.60;;
20865;SDS011;10593;48.398;10.698;2022-09-12T03:29:44;9.57;;;2.47;;
20865;SDS011;10593;48.398;10.698;2022-09-12T03:32:12;2.10;;;2.00;;
20865;SDS011;10593;48.398;10.698;2022-09-12T03:34:39;2.70;;;2.50;;
20865;SDS011;10593;48.398;10.698;2022-09-12T03:37:04;2.43;;;2.00;;
20865;SDS011;10593;48.398;10.698;2022-09-12T03:39:31;4.43;;;2.03;;
20865;SDS011;10593;48.398;10.698;2022-09-12T03:41:57;2.50;;;2.33;;
20865;SDS011;10593;48.398;10.698;2022-09-12T03:44:22;2.30;;;2.20;;
20865;SDS011;10593;48.398;10.698;2022-09-12T03:46:48;4.23;;;2.20;;
20865;SDS011;10593;48.398;10.698;2022-09-12T03:49:14;2.30;;;2.20;;
20865;SDS011;10593;48.398;10.698;2022-09-12T03:51:41;2.33;;;2.13;;
20865;SDS011;10593;48.398;10.698;2022-09-12T03:54:07;3.70;;;2.30;;
20865;SDS011;10593;48.398;10.698;2022-09-12T03:56:33;2.57;;;2.20;;
20865;SDS011;10593;48.398;10.698;2022-09-12T03:58:59;2.57;;;2.40;;
20865;SDS011;10593;48.398;10.698;2022-09-12T04:01:25;2.23;;;2.13;;
20865;SDS011;10593;48.398;10.698;2022-09-12T04:03:51;2.43;;;2.23;;
20865;SDS011;10593;48.398;10.698;2022-09-12T04:06:18;2.03;;;1.93;;
20865;SDS011;10593;48.398;10.698;2022-09-12T04:08:49;2.57;;;2.20;;
20865;SDS011;10593;48.398;10.698;2022-09-12T04:11:18;2.10;;;2.00;;
20865;SDS011;10593;48.398;10.698;2022-09-12T04:13:45;1.93;;;1.83;;
20865;SDS011;10593;48.398;10.698;2022-09-12T04:16:12;2.10;;;2.00;;
20865;SDS011;10593;48.398;10.698;2022-09-12T04:18:39;1.97;;;1.87;;
20865;SDS011;10593;48.398;10.698;2022-09-12T04:21:06;2.13;;;2.03;;
20865;SDS011;10593;48.398;10.698;2022-09-12T04:23:38;3.33;;;1.80;;
20865;SDS011;10593;48.398;10.698;2022-09-12T04:26:04;7.80;;;1.90;;
20865;SDS011;10593;48.398;10.698;2022-09-12T04:28:34;4.20;;;2.10;;
20865;SDS011;10593;48.398;10.698;2022-09-12T04:31:03;2.03;;;1.93;;
20865;SDS011;10593;48.398;10.698;2022-09-12T04:33:33;2.90;;;1.60;;
20865;SDS011;10593;48.398;10.698;2022-09-12T04:36:07;1.80;;;1.70;;
20865;SDS011;10593;48.398;10.698;2022-09-12T04:38:40;2.07;;;1.97;;
20865;SDS011;10593;48.398;10.698;2022-09-12T04:41:18;2.23;;;1.83;;
20865;SDS011;10593;48.398;10.698;2022-09-12T04:43:51;1.90;;;1.50;;
20865;SDS011;10593;48.398;10.698;2022-09-12T04:46:22;1.73;;;1.53;;
20865;SDS011;10593;48.398;10.698;2022-09-12T04:48:49;2.97;;;1.77;;
20865;SDS011;10593;48.398;10.698;2022-09-12T04:51:16;2.13;;;1.73;;
20865;SDS011;10593;48.398;10.698;2022-09-12T04:53:51;1.73;;;1.63;;
20865;SDS011;10593;48.398;10.698;2022-09-12T04:56:20;1.77;;;1.67;;
20865;SDS011;10593;48.398;10.698;2022-09-12T04:58:47;1.80;;;1.70;;
20865;SDS011;10593;48.398;10.698;2022-09-12T05:01:17;1.60;;;1.50;;
20865;SDS011;10593;48.398;10.698;2022-09-12T05:03:46;1.90;;;1.80;;
20865;SDS011;10593;48.398;10.698;2022-09-12T05:06:13;2.10;;;2.00;;
20865;SDS011;10593;48.398;10.698;2022-09-12T05:08:46;2.00;;;1.90;;
20865;SDS011;10593;48.398;10.698;2022-09-12T05:11:13;2.00;;;1.90;;
20865;SDS011;10593;48.398;10.698;2022-09-12T05:13:42;4.93;;;1.83;;
20865;SDS011;10593;48.398;10.698;2022-09-12T05:16:10;1.80;;;1.70;;
20865;SDS011;10593;48.398;10.698;2022-09-12T05:18:39;4.40;;;1.63;;
20865;SDS011;10593;48.398;10.698;2022-09-12T05:21:06;1.47;;;1.47;;
20865;SDS011;10593;48.398;10.698;2022-09-12T05:23:34;2.17;;;1.30;;
20865;SDS011;10593;48.398;10.698;2022-09-12T05:26:00;1.60;;;1.50;;
20865;SDS011;10593;48.398;10.698;2022-09-12T05:28:29;2.60;;;1.60;;
20865;SDS011;10593;48.398;10.698;2022-09-12T05:31:05;2.03;;;1.93;;
20865;SDS011;10593;48.398;10.698;2022-09-12T05:33:35;7.57;;;1.60;;
20865;SDS011;10593;48.398;10.698;2022-09-12T05:36:03;1.60;;;1.60;;
20865;SDS011;10593;48.398;10.698;2022-09-12T05:38:34;1.70;;;1.60;;
20865;SDS011;10593;48.398;10.698;2022-09-12T05:41:02;1.33;;;1.33;;
20865;SDS011;10593;48.398;10.698;2022-09-12T05:43:36;1.93;;;1.27;;
20865;SDS011;10593;48.398;10.698;2022-09-12T05:46:04;1.27;;;1.27;;
20865;SDS011;10593;48.398;10.698;2022-09-12T05:48:34;5.13;;;1.40;;
20865;SDS011;10593;48.398;10.698;2022-09-12T05:51:02;1.47;;;1.40;;
20865;SDS011;10593;48.398;10.698;2022-09-12T05:53:34;1.40;;;1.40;;
20865;SDS011;10593;48.398;10.698;2022-09-12T05:56:02;1.33;;;1.33;;
20865;SDS011;10593;48.398;10.698;2022-09-12T05:58:35;1.30;;;1.30;;
20865;SDS011;10593;48.398;10.698;2022-09-12T06:01:05;1.63;;;1.53;;
20865;SDS011;10593;48.398;10.698;2022-09-12T06:03:40;2.10;;;1.37;;
20865;SDS011;10593;48.398;10.698;2022-09-12T06:06:09;1.87;;;1.40;;
20865;SDS011;10593;48.398;10.698;2022-09-12T06:08:41;1.63;;;1.40;;
20865;SDS011;10593;48.398;10.698;2022-09-12T06:11:10;1.17;;;1.10;;
20865;SDS011;10593;48.398;10.698;2022-09-12T06:13:39;1.57;;;1.47;;
20865;SDS011;10593;48.398;10.698;2022-09-12T06:16:08;1.23;;;1.23;;
20865;SDS011;10593;48.398;10.698;2022-09-12T06:18:46;1.13;;;1.13;;
20865;SDS011;10593;48.398;10.698;2022-09-12T06:21:15;1.13;;;1.13;;
20865;SDS011;10593;48.398;10.698;2022-09-12T06:23:41;3.13;;;1.20;;
20865;SDS011;10593;48.398;10.698;2022-09-12T06:26:10;1.20;;;1.10;;
20865;SDS011;10593;48.398;10.698;2022-09-12T06:28:40;1.10;;;1.10;;
20865;SDS011;10593;48.398;10.698;2022-09-12T06:31:10;1.40;;;1.40;;
20865;SDS011;10593;48.398;10.698;2022-09-12T06:33:42;1.40;;;1.30;;
20865;SDS011;10593;48.398;10.698;2022-09-12T06:36:15;1.00;;;1.00;;
20865;SDS011;10593;48.398;10.698;2022-09-12T06:38:46;1.10;;;1.10;;
20865;SDS011;10593;48.398;10.698;2022-09-12T06:41:15;1.07;;;1.07;;
20865;SDS011;10593;48.398;10.698;2022-09-12T06:43:41;1.40;;;1.40;;
20865;SDS011;10593;48.398;10.698;2022-09-12T06:46:08;1.10;;;1.10;;
20865;SDS011;10593;48.398;10.698;2022-09-12T06:48:35;1.37;;;1.27;;
20865;SDS011;10593;48.398;10.698;2022-09-12T06:51:05;1.07;;;1.07;;
20865;SDS011;10593;48.398;10.698;2022-09-12T06:53:35;1.17;;;1.17;;
20865;SDS011;10593;48.398;10.698;2022-09-12T06:58:28;1.00;;;1.00;;
20865;SDS011;10593;48.398;10.698;2022-09-12T07:01:01;1.03;;;1.03;;
20865;SDS011;10593;48.398;10.698;2022-09-12T07:03:35;1.20;;;1.20;;
20865;SDS011;10593;48.398;10.698;2022-09-12T07:06:09;1.10;;;1.10;;
20865;SDS011;10593;48.398;10.698;2022-09-12T07:08:37;1.10;;;1.10;;
20865;SDS011;10593;48.398;10.698;2022-09-12T07:11:15;1.40;;;1.23;;
20865;SDS011;10593;48.398;10.698;2022-09-12T07:13:48;1.23;;;1.23;;
20865;SDS011;10593;48.398;10.698;2022-09-12T07:16:17;1.20;;;1.20;;
20865;SDS011;10593;48.398;10.698;2022-09-12T07:18:43;1.53;;;1.43;;
20865;SDS011;10593;48.398;10.698;2022-09-12T07:21:11;1.13;;;1.13;;
20865;SDS011;10593;48.398;10.698;2022-09-12T07:23:39;1.10;;;1.10;;
20865;SDS011;10593;48.398;10.698;2022-09-12T07:26:06;1.10;;;1.10;;
20865;SDS011;10593;48.398;10.698;2022-09-12T07:28:35;1.20;;;1.20;;
20865;SDS011;10593;48.398;10.698;2022-09-12T07:31:08;1.20;;;1.20;;
20865;SDS011;10593;48.398;10.698;2022-09-12T07:33:37;1.47;;;1.40;;
20865;SDS011;10593;48.398;10.698;2022-09-12T07:36:05;1.20;;;1.20;;
20865;SDS011;10593;48.398;10.698;2022-09-12T07:38:35;1.27;;;1.27;;
20865;SDS011;10593;48.398;10.698;2022-09-12T07:41:14;2.43;;;1.40;;
20865;SDS011;10593;48.398;10.698;2022-09-12T07:43:46;1.27;;;1.27;;
20865;SDS011;10593;48.398;10.698;2022-09-12T07:46:12;1.23;;;1.23;;
20865;SDS011;10593;48.398;10.698;2022-09-12T07:48:39;1.40;;;1.30;;
20865;SDS011;10593;48.398;10.698;2022-09-12T07:51:06;1.40;;;1.30;;
20865;SDS011;10593;48.398;10.698;2022-09-12T07:53:43;1.10;;;1.10;;
20865;SDS011;10593;48.398;10.698;2022-09-12T07:56:10;2.30;;;1.30;;
20865;SDS011;10593;48.398;10.698;2022-09-12T07:58:37;1.00;;;1.00;;
20865;SDS011;10593;48.398;10.698;2022-09-12T08:03:35;1.20;;;1.20;;
20865;SDS011;10593;48.398;10.698;2022-09-12T08:06:02;1.20;;;1.20;;
20865;SDS011;10593;48.398;10.698;2022-09-12T08:08:28;0.90;;;0.90;;
20865;SDS011;10593;48.398;10.698;2022-09-12T08:10:58;1.83;;;1.03;;
20865;SDS011;10593;48.398;10.698;2022-09-12T08:13:26;1.63;;;1.23;;
20865;SDS011;10593;48.398;10.698;2022-09-12T08:15:55;0.97;;;0.70;;
20865;SDS011;10593;48.398;10.698;2022-09-12T08:18:24;0.83;;;0.83;;
20865;SDS011;10593;48.398;10.698;2022-09-12T08:20:58;1.00;;;0.83;;
20865;SDS011;10593;48.398;10.698;2022-09-12T08:23:25;0.90;;;0.90;;
20865;SDS011;10593;48.398;10.698;2022-09-12T08:25:55;1.93;;;0.90;;
20865;SDS011;10593;48.398;10.698;2022-09-12T08:28:27;1.10;;;1.10;;
20865;SDS011;10593;48.398;10.698;2022-09-12T08:31:02;1.20;;;1.10;;
20865;SDS011;10593;48.398;10.698;2022-09-12T08:33:33;1.00;;;1.00;;
20865;SDS011;10593;48.398;10.698;2022-09-12T08:36:03;1.10;;;1.10;;
20865;SDS011;10593;48.398;10.698;2022-09-12T08:38:41;1.30;;;1.30;;
20865;SDS011;10593;48.398;10.698;2022-09-12T08:58:15;1.60;;;1.50;;
20865;SDS011;10593;48.398;10.698;2022-09-12T09:03:54;1.60;;;1.53;;
20865;SDS011;10593;48.398;10.698;2022-09-12T09:06:51;1.53;;;1.43;;
20865;SDS011;10593;48.398;10.698;2022-09-12T09:15:21;3.43;;;1.70;;
20865;SDS011;10593;48.398;10.698;2022-09-12T09:18:20;1.77;;;1.67;;
20865;SDS011;10593;48.398;10.698;2022-09-12T09:20:56;2.03;;;1.93;;
20865;SDS011;10593;48.398;10.698;2022-09-12T09:23:31;1.90;;;1.80;;
20865;SDS011;10593;48.398;10.698;2022-09-12T09:26:12;1.50;;;1.40;;
20865;SDS011;10593;48.398;10.698;2022-09-12T09:28:54;1.47;;;1.37;;
20865;SDS011;10593;48.398;10.698;2022-09-12T09:31:27;1.40;;;1.40;;
20865;SDS011;10593;48.398;10.698;2022-09-12T09:34:04;2.03;;;1.80;;
20865;SDS011;10593;48.398;10.698;2022-09-12T09:36:49;1.90;;;1.80;;
20865;SDS011;10593;48.398;10.698;2022-09-12T09:39:25;1.70;;;1.60;;
20865;SDS011;10593;48.398;10.698;2022-09-12T09:45:09;1.53;;;1.43;;
20865;SDS011;10593;48.398;10.698;2022-09-12T09:47:41;1.90;;;1.80;;
20865;SDS011;10593;48.398;10.698;2022-09-12T09:50:15;2.03;;;1.50;;
20865;SDS011;10593;48.398;10.698;2022-09-12T09:52:41;2.40;;;1.90;;
20865;SDS011;10593;48.398;10.698;2022-09-12T09:55:11;1.50;;;1.50;;
20865;SDS011;10593;48.398;10.698;2022-09-12T09:57:46;1.70;;;1.60;;
20865;SDS011;10593;48.398;10.698;2022-09-12T10:00:28;1.60;;;1.50;;
20865;SDS011;10593;48.398;10.698;2022-09-12T10:03:31;1.77;;;1.67;;
20865;SDS011;10593;48.398;10.698;2022-09-12T10:05:56;1.77;;;1.40;;
20865;SDS011;10593;48.398;10.698;2022-09-12T10:08:27;1.47;;;1.43;;
20865;SDS011;10593;48.398;10.698;2022-09-12T10:10:57;1.80;;;1.70;;
20865;SDS011;10593;48.398;10.698;2022-09-12T10:13:38;1.30;;;1.30;;
20865;SDS011;10593;48.398;10.698;2022-09-12T10:18:54;2.50;;;1.60;;
20865;SDS011;10593;48.398;10.698;2022-09-12T10:21:26;1.50;;;1.40;;
20865;SDS011;10593;48.398;10.698;2022-09-12T10:26:54;1.60;;;1.50;;
20865;SDS011;10593;48.398;10.698;2022-09-12T10:29:30;1.60;;;1.50;;
20865;SDS011;10593;48.398;10.698;2022-09-12T10:32:04;2.50;;;1.40;;
20865;SDS011;10593;48.398;10.698;2022-09-12T10:34:36;1.57;;;1.57;;
20865;SDS011;10593;48.398;10.698;2022-09-12T10:37:08;1.40;;;1.30;;
20865;SDS011;10593;48.398;10.698;2022-09-12T10:39:48;1.77;;;1.67;;
20865;SDS011;10593;48.398;10.698;2022-09-12T10:45:28;1.20;;;1.20;;
20865;SDS011;10593;48.398;10.698;2022-09-12T10:47:59;1.60;;;1.50;;
20865;SDS011;10593;48.398;10.698;2022-09-12T10:50:46;1.33;;;1.23;;
20865;SDS011;10593;48.398;10.698;2022-09-12T10:53:13;1.20;;;1.20;;
20865;SDS011;10593;48.398;10.698;2022-09-12T10:56:06;1.33;;;1.23;;
20865;SDS011;10593;48.398;10.698;2022-09-12T11:01:58;1.33;;;1.33;;
20865;SDS011;10593;48.398;10.698;2022-09-12T11:05:08;1.70;;;1.57;;
20865;SDS011;10593;48.398;10.698;2022-09-12T11:07:45;1.40;;;1.40;;
20865;SDS011;10593;48.398;10.698;2022-09-12T11:10:42;1.27;;;1.23;;
20865;SDS011;10593;48.398;10.698;2022-09-12T11:13:50;1.43;;;1.33;;
20865;SDS011;10593;48.398;10.698;2022-09-12T11:16:33;1.40;;;1.40;;
20865;SDS011;10593;48.398;10.698;2022-09-12T11:25:39;1.60;;;1.50;;
20865;SDS011;10593;48.398;10.698;2022-09-12T11:28:51;1.63;;;1.23;;
20865;SDS011;10593;48.398;10.698;2022-09-12T11:31:41;1.93;;;1.83;;
20865;SDS011;10593;48.398;10.698;2022-09-12T11:42:44;1.30;;;1.30;;
20865;SDS011;10593;48.398;10.698;2022-09-12T11:45:22;1.20;;;1.20;;
20865;SDS011;10593;48.398;10.698;2022-09-12T11:48:03;1.30;;;1.30;;
20865;SDS011;10593;48.398;10.698;2022-09-12T11:50:38;1.40;;;1.30;;
20865;SDS011;10593;48.398;10.698;2022-09-12T11:53:24;1.40;;;1.40;;
20865;SDS011;10593;48.398;10.698;2022-09-12T11:56:08;1.27;;;1.27;;
20865;SDS011;10593;48.398;10.698;2022-09-12T11:58:48;1.50;;;1.40;;
20865;SDS011;10593;48.398;10.698;2022-09-12T12:01:57;1.30;;;1.30;;
20865;SDS011;10593;48.398;10.698;2022-09-12T12:04:19;1.40;;;1.30;;
20865;SDS011;10593;48.398;10.698;2022-09-12T12:07:00;1.50;;;1.30;;
20865;SDS011;10593;48.398;10.698;2022-09-12T12:09:30;1.40;;;1.30;;
20865;SDS011;10593;48.398;10.698;2022-09-12T12:11:57;1.07;;;1.03;;
20865;SDS011;10593;48.398;10.698;2022-09-12T12:14:40;1.10;;;1.10;;
20865;SDS011;10593;48.398;10.698;2022-09-12T12:17:20;1.30;;;1.30;;
20865;SDS011;10593;48.398;10.698;2022-09-12T12:20:02;1.47;;;1.37;;
20865;SDS011;10593;48.398;10.698;2022-09-12T12:22:29;1.37;;;1.37;;
20865;SDS011;10593;48.398;10.698;2022-09-12T12:25:04;1.50;;;1.40;;
20865;SDS011;10593;48.398;10.698;2022-09-12T12:27:46;1.37;;;1.27;;
20865;SDS011;10593;48.398;10.698;2022-09-12T12:32:58;1.23;;;1.23;;
20865;SDS011;10593;48.398;10.698;2022-09-12T12:38:00;1.20;;;1.20;;
20865;SDS011;10593;48.398;10.698;2022-09-12T12:40:28;1.20;;;1.20;;
20865;SDS011;10593;48.398;10.698;2022-09-12T12:48:15;1.17;;;1.13;;
20865;SDS011;10593;48.398;10.698;2022-09-12T12:50:42;1.20;;;1.20;;
20865;SDS011;10593;48.398;10.698;2022-09-12T12:53:17;1.20;;;1.20;;
20865;SDS011;10593;48.398;10.698;2022-09-12T12:55:52;0.90;;;0.90;;
20865;SDS011;10593;48.398;10.698;2022-09-12T12:58:27;1.30;;;1.30;;
20865;SDS011;10593;48.398;10.698;2022-09-12T13:01:16;1.30;;;1.20;;
20865;SDS011;10593;48.398;10.698;2022-09-12T13:04:00;1.00;;;1.00;;
20865;SDS011;10593;48.398;10.698;2022-09-12T13:06:37;1.30;;;1.30;;
20865;SDS011;10593;48.398;10.698;2022-09-12T13:09:18;1.37;;;1.30;;
20865;SDS011;10593;48.398;10.698;2022-09-12T13:12:09;1.10;;;1.10;;
20865;SDS011;10593;48.398;10.698;2022-09-12T13:14:49;1.37;;;1.27;;
20865;SDS011;10593;48.398;10.698;2022-09-12T13:17:21;0.80;;;0.80;;
20865;SDS011;10593;48.398;10.698;2022-09-12T13:22:41;1.13;;;1.13;;
20865;SDS011;10593;48.398;10.698;2022-09-12T13:25:46;1.30;;;1.20;;
20865;SDS011;10593;48.398;10.698;2022-09-12T13:30:37;0.90;;;0.90;;
20865;SDS011;10593;48.398;10.698;2022-09-12T13:33:18;1.70;;;1.53;;
20865;SDS011;10593;48.398;10.698;2022-09-12T13:44:46;1.33;;;1.23;;
20865;SDS011;10593;48.398;10.698;2022-09-12T13:47:22;1.07;;;1.07;;
20865;SDS011;10593;48.398;10.698;2022-09-12T13:49:55;1.10;;;1.10;;
20865;SDS011;10593;48.398;10.698;2022-09-12T13:52:24;1.07;;;1.07;;
20865;SDS011;10593;48.398;10.698;2022-09-12T13:54:54;0.80;;;0.80;;
20865;SDS011;10593;48.398;10.698;2022-09-12T13:57:36;1.20;;;1.10;;
20865;SDS011;10593;48.398;10.698;2022-09-12T14:02:44;0.90;;;0.90;;
20865;SDS011;10593;48.398;10.698;2022-09-12T14:05:13;1.57;;;1.33;;
20865;SDS011;10593;48.398;10.698;2022-09-12T14:10:26;1.20;;;1.20;;
20865;SDS011;10593;48.398;10.698;2022-09-12T14:13:02;1.30;;;1.30;;
20865;SDS011;10593;48.398;10.698;2022-09-12T14:15:37;1.07;;;1.00;;
20865;SDS011;10593;48.398;10.698;2022-09-12T14:18:18;0.97;;;0.93;;
20865;SDS011;10593;48.398;10.698;2022-09-12T14:21:06;1.10;;;1.07;;
20865;SDS011;10593;48.398;10.698;2022-09-12T14:23:36;0.90;;;0.90;;
20865;SDS011;10593;48.398;10.698;2022-09-12T14:26:10;1.17;;;1.13;;
20865;SDS011;10593;48.398;10.698;2022-09-12T14:28:40;0.80;;;0.80;;
20865;SDS011;10593;48.398;10.698;2022-09-12T14:36:26;0.87;;;0.87;;
20865;SDS011;10593;48.398;10.698;2022-09-12T14:39:06;1.10;;;1.10;;
20865;SDS011;10593;48.398;10.698;2022-09-12T14:42:03;1.07;;;1.07;;
20865;SDS011;10593;48.398;10.698;2022-09-12T14:44:36;0.90;;;0.90;;
20865;SDS011;10593;48.398;10.698;2022-09-12T14:47:13;0.90;;;0.90;;
20865;SDS011;10593;48.398;10.698;2022-09-12T14:49:48;1.50;;;1.40;;
20865;SDS011;10593;48.398;10.698;2022-09-12T14:52:24;1.73;;;1.30;;
20865;SDS011;10593;48.398;10.698;2022-09-12T14:55:01;1.30;;;1.30;;
20865;SDS011;10593;48.398;10.698;2022-09-12T14:57:40;0.90;;;0.90;;
20865;SDS011;10593;48.398;10.698;2022-09-12T15:02:37;0.80;;;0.80;;
20865;SDS011;10593;48.398;10.698;2022-09-12T15:10:33;0.90;;;0.90;;
20865;SDS011;10593;48.398;10.698;2022-09-12T15:15:33;2.43;;;0.90;;
20865;SDS011;10593;48.398;10.698;2022-09-12T15:18:03;0.80;;;0.80;;
20865;SDS011;10593;48.398;10.698;2022-09-12T15:20:29;0.70;;;0.70;;
20865;SDS011;10593;48.398;10.698;2022-09-12T15:22:56;0.70;;;0.70;;
20865;SDS011;10593;48.398;10.698;2022-09-12T15:25:22;0.80;;;0.80;;
20865;SDS011;10593;48.398;10.698;2022-09-12T15:27:49;0.97;;;0.97;;
20865;SDS011;10593;48.398;10.698;2022-09-12T15:30:17;0.83;;;0.83;;
20865;SDS011;10593;48.398;10.698;2022-09-12T15:32:43;0.83;;;0.83;;
20865;SDS011;10593;48.398;10.698;2022-09-12T15:35:12;0.83;;;0.83;;
20865;SDS011;10593;48.398;10.698;2022-09-12T15:37:47;0.87;;;0.87;;
20865;SDS011;10593;48.398;10.698;2022-09-12T15:40:14;1.23;;;1.23;;
20865;SDS011;10593;48.398;10.698;2022-09-12T15:42:40;1.00;;;1.00;;
20865;SDS011;10593;48.398;10.698;2022-09-12T15:45:25;0.70;;;0.70;;
20865;SDS011;10593;48.398;10.698;2022-09-12T15:47:54;1.53;;;1.00;;
20865;SDS011;10593;48.398;10.698;2022-09-12T15:50:20;0.90;;;0.90;;
20865;SDS011;10593;48.398;10.698;2022-09-12T15:52:46;1.20;;;1.10;;
20865;SDS011;10593;48.398;10.698;2022-09-12T15:55:19;1.00;;;1.00;;
20865;SDS011;10593;48.398;10.698;2022-09-12T15:57:49;0.90;;;0.90;;
20865;SDS011;10593;48.398;10.698;2022-09-12T16:00:16;0.80;;;0.80;;
20865;SDS011;10593;48.398;10.698;2022-09-12T16:02:43;1.00;;;1.00;;
20865;SDS011;10593;48.398;10.698;2022-09-12T16:05:16;0.90;;;0.90;;
20865;SDS011;10593;48.398;10.698;2022-09-12T16:07:50;0.90;;;0.90;;
20865;SDS011;10593;48.398;10.698;2022-09-12T16:10:18;0.90;;;0.90;;
20865;SDS011;10593;48.398;10.698;2022-09-12T16:12:52;1.53;;;0.80;;
20865;SDS011;10593;48.398;10.698;2022-09-12T16:15:19;1.20;;;1.10;;
20865;SDS011;10593;48.398;10.698;2022-09-12T16:17:48;1.00;;;1.00;;
20865;SDS011;10593;48.398;10.698;2022-09-12T16:20:14;1.03;;;1.03;;
20865;SDS011;10593;48.398;10.698;2022-09-12T16:22:41;0.93;;;0.93;;
20865;SDS011;10593;48.398;10.698;2022-09-12T16:25:07;1.00;;;0.90;;
20865;SDS011;10593;48.398;10.698;2022-09-12T16:27:33;1.00;;;1.00;;
20865;SDS011;10593;48.398;10.698;2022-09-12T16:30:00;1.00;;;1.00;;
20865;SDS011;10593;48.398;10.698;2022-09-12T16:32:26;0.80;;;0.80;;
20865;SDS011;10593;48.398;10.698;2022-09-12T16:34:51;0.73;;;0.73;;
20865;SDS011;10593;48.398;10.698;2022-09-12T16:37:17;1.10;;;1.00;;
20865;SDS011;10593;48.398;10.698;2022-09-12T16:39:43;1.10;;;1.10;;
20865;SDS011;10593;48.398;10.698;2022-09-12T16:42:09;0.80;;;0.80;;
20865;SDS011;10593;48.398;10.698;2022-09-12T16:44:34;0.80;;;0.80;;
20865;SDS011;10593;48.398;10.698;2022-09-12T16:47:00;8.10;;;1.37;;
20865;SDS011;10593;48.398;10.698;2022-09-12T16:49:26;1.10;;;1.00;;
20865;SDS011;10593;48.398;10.698;2022-09-12T16:51:51;0.90;;;0.90;;
20865;SDS011;10593;48.398;10.698;2022-09-12T16:54:17;0.90;;;0.90;;
20865;SDS011;10593;48.398;10.698;2022-09-12T16:56:43;0.90;;;0.87;;
20865;SDS011;10593;48.398;10.698;2022-09-12T16:59:10;1.00;;;1.00;;
20865;SDS011;10593;48.398;10.698;2022-09-12T17:01:40;1.20;;;1.10;;
20865;SDS011;10593;48.398;10.698;2022-09-12T17:04:08;1.00;;;1.00;;
20865;SDS011;10593;48.398;10.698;2022-09-12T17:06:35;0.97;;;0.97;;
20865;SDS011;10593;48.398;10.698;2022-09-12T17:09:02;1.10;;;1.10;;
20865;SDS011;10593;48.398;10.698;2022-09-12T17:11:29;1.00;;;1.00;;
20865;SDS011;10593;48.398;10.698;2022-09-12T17:14:01;1.20;;;1.20;;
20865;SDS011;10593;48.398;10.698;2022-09-12T17:16:34;0.90;;;0.90;;
20865;SDS011;10593;48.398;10.698;2022-09-12T17:19:06;1.40;;;1.30;;
20865;SDS011;10593;48.398;10.698;2022-09-12T17:21:36;1.00;;;1.00;;
20865;SDS011;10593;48.398;10.698;2022-09-12T17:24:01;1.03;;;1.03;;
20865;SDS011;10593;48.398;10.698;2022-09-12T17:26:27;1.13;;;1.13;;